sensor_id;sensor_type;location;lat;lon;timestamp;temperature;humidity
57282;DHT22;43129;52.628;10.098;2023-05-10T00:01:03;14.40;54.70
57282;DHT22;43129;52.628;10.098;2023-05-10T00:03:29;14.40;54.90
57282;DHT22;43129;52.628;10.098;2023-05-10T00:05:54;14.40;55.00
57282;DHT22;43129;52.628;10.098;2023-05-10T00:08:22;14.40;55.10
57282;DHT22;43129;52.628;10.098;2023-05-10T00:10:49;14.30;55.20
57282;DHT22;43129;52.628;10.098;2023-05-10T00:13:17;14.30;55.40
57282;DHT22;43129;52.628;10.098;2023-05-10T00:15:47;14.30;55.50
57282;DHT22;43129;52.628;10.098;2023-05-10T00:18:17;14.20;55.70
57282;DHT22;43129;52.628;10.098;2023-05-10T00:20:45;14.20;55.90
57282;DHT22;43129;52.628;10.098;2023-05-10T00:23:14;14.20;56.10
57282;DHT22;43129;52.628;10.098;2023-05-10T00:25:39;14.10;56.20
57282;DHT22;43129;52.628;10.098;2023-05-10T00:28:05;14.20;56.40
57282;DHT22;43129;52.628;10.098;2023-05-10T00:30:30;14.20;56.50
57282;DHT22;43129;52.628;10.098;2023-05-10T00:32:58;14.10;56.60
57282;DHT22;43129;52.628;10.098;2023-05-10T00:35:24;14.10;56.80
57282;DHT22;43129;52.628;10.098;2023-05-10T00:37:49;14.10;56.90
57282;DHT22;43129;52.628;10.098;2023-05-10T00:40:18;14.10;57.10
57282;DHT22;43129;52.628;10.098;2023-05-10T00:42:43;14.00;57.20
57282;DHT22;43129;52.628;10.098;2023-05-10T00:45:09;14.00;57.30
57282;DHT22;43129;52.628;10.098;2023-05-10T00:47:35;13.90;57.50
57282;DHT22;43129;52.628;10.098;2023-05-10T00:50:01;13.90;57.50
57282;DHT22;43129;52.628;10.098;2023-05-10T00:52:32;13.90;57.60
57282;DHT22;43129;52.628;10.098;2023-05-10T00:55:01;13.90;57.70
57282;DHT22;43129;52.628;10.098;2023-05-10T00:57:28;13.80;58.00
57282;DHT22;43129;52.628;10.098;2023-05-10T00:59:57;13.80;58.20
57282;DHT22;43129;52.628;10.098;2023-05-10T01:02:27;13.80;58.20
57282;DHT22;43129;52.628;10.098;2023-05-10T01:04:53;13.80;58.50
57282;DHT22;43129;52.628;10.098;2023-05-10T01:07:19;13.80;58.60
57282;DHT22;43129;52.628;10.098;2023-05-10T01:09:45;13.70;58.60
57282;DHT22;43129;52.628;10.098;2023-05-10T01:12:11;13.70;58.80
57282;DHT22;43129;52.628;10.098;2023-05-10T01:14:39;13.70;58.90
57282;DHT22;43129;52.628;10.098;2023-05-10T01:17:08;13.60;59.00
57282;DHT22;43129;52.628;10.098;2023-05-10T01:19:37;13.60;59.00
57282;DHT22;43129;52.628;10.098;2023-05-10T01:25:29;13.60;59.30
57282;DHT22;43129;52.628;10.098;2023-05-10T01:33:43;13.50;59.70
57282;DHT22;43129;52.628;10.098;2023-05-10T01:36:45;13.50;59.80
57282;DHT22;43129;52.628;10.098;2023-05-10T01:39:31;13.40;60.00
57282;DHT22;43129;52.628;10.098;2023-05-10T01:42:08;13.40;60.10
57282;DHT22;43129;52.628;10.098;2023-05-10T01:47:37;13.40;60.40
57282;DHT22;43129;52.628;10.098;2023-05-10T01:50:06;13.30;60.40
57282;DHT22;43129;52.628;10.098;2023-05-10T01:52:41;13.30;60.60
57282;DHT22;43129;52.628;10.098;2023-05-10T01:55:13;13.30;60.60
57282;DHT22;43129;52.628;10.098;2023-05-10T01:57:46;13.30;60.50
57282;DHT22;43129;52.628;10.098;2023-05-10T02:00:19;13.20;60.60
57282;DHT22;43129;52.628;10.098;2023-05-10T02:02:47;13.20;60.60
57282;DHT22;43129;52.628;10.098;2023-05-10T02:05:17;13.30;60.90
57282;DHT22;43129;52.628;10.098;2023-05-10T02:07:48;13.20;60.80
57282;DHT22;43129;52.628;10.098;2023-05-10T02:10:15;13.20;60.90
57282;DHT22;43129;52.628;10.098;2023-05-10T02:12:48;13.20;61.10
57282;DHT22;43129;52.628;10.098;2023-05-10T02:15:22;13.20;61.10
57282;DHT22;43129;52.628;10.098;2023-05-10T02:17:50;13.10;61.10
57282;DHT22;43129;52.628;10.098;2023-05-10T02:20:23;13.10;61.30
57282;DHT22;43129;52.628;10.098;2023-05-10T02:22:55;13.10;61.40
57282;DHT22;43129;52.628;10.098;2023-05-10T02:25:22;13.10;61.40
57282;DHT22;43129;52.628;10.098;2023-05-10T02:27:56;13.10;61.40
57282;DHT22;43129;52.628;10.098;2023-05-10T02:30:22;13.10;61.50
57282;DHT22;43129;52.628;10.098;2023-05-10T02:32:50;13.10;61.70
57282;DHT22;43129;52.628;10.098;2023-05-10T02:35:17;13.10;61.60
57282;DHT22;43129;52.628;10.098;2023-05-10T02:37:46;13.10;61.60
57282;DHT22;43129;52.628;10.098;2023-05-10T02:40:15;13.00;61.80
57282;DHT22;43129;52.628;10.098;2023-05-10T02:42:48;13.10;61.90
57282;DHT22;43129;52.628;10.098;2023-05-10T02:45:19;13.10;61.90
57282;DHT22;43129;52.628;10.098;2023-05-10T02:47:48;13.00;61.90
57282;DHT22;43129;52.628;10.098;2023-05-10T02:50:13;13.00;62.10
57282;DHT22;43129;52.628;10.098;2023-05-10T02:52:47;13.00;62.30
57282;DHT22;43129;52.628;10.098;2023-05-10T02:55:20;12.90;62.20
57282;DHT22;43129;52.628;10.098;2023-05-10T02:57:52;12.90;62.40
57282;DHT22;43129;52.628;10.098;2023-05-10T03:00:20;12.90;62.70
57282;DHT22;43129;52.628;10.098;2023-05-10T03:02:48;12.80;62.80
57282;DHT22;43129;52.628;10.098;2023-05-10T03:05:14;12.90;62.80
57282;DHT22;43129;52.628;10.098;2023-05-10T03:07:39;12.80;62.70
57282;DHT22;43129;52.628;10.098;2023-05-10T03:10:07;12.80;63.00
57282;DHT22;43129;52.628;10.098;2023-05-10T03:15:39;12.70;63.10
57282;DHT22;43129;52.628;10.098;2023-05-10T03:20:47;12.70;63.50
57282;DHT22;43129;52.628;10.098;2023-05-10T03:23:20;12.70;63.50
57282;DHT22;43129;52.628;10.098;2023-05-10T03:25:48;12.70;63.70
57282;DHT22;43129;52.628;10.098;2023-05-10T03:28:20;12.70;63.90
57282;DHT22;43129;52.628;10.098;2023-05-10T03:30:49;12.60;63.90
57282;DHT22;43129;52.628;10.098;2023-05-10T03:33:19;12.60;63.90
57282;DHT22;43129;52.628;10.098;2023-05-10T03:35:48;12.60;64.00
57282;DHT22;43129;52.628;10.098;2023-05-10T03:38:15;12.60;64.20
57282;DHT22;43129;52.628;10.098;2023-05-10T03:40:43;12.60;64.20
57282;DHT22;43129;52.628;10.098;2023-05-10T03:43:13;12.60;64.30
57282;DHT22;43129;52.628;10.098;2023-05-10T03:45:39;12.70;64.40
57282;DHT22;43129;52.628;10.098;2023-05-10T03:48:05;12.60;64.20
57282;DHT22;43129;52.628;10.098;2023-05-10T03:50:33;12.60;64.20
57282;DHT22;43129;52.628;10.098;2023-05-10T03:52:59;12.60;64.30
57282;DHT22;43129;52.628;10.098;2023-05-10T03:55:24;12.60;64.30
57282;DHT22;43129;52.628;10.098;2023-05-10T03:57:50;12.60;64.30
57282;DHT22;43129;52.628;10.098;2023-05-10T04:00:25;12.60;64.30
57282;DHT22;43129;52.628;10.098;2023-05-10T04:02:50;12.60;64.40
57282;DHT22;43129;52.628;10.098;2023-05-10T04:05:16;12.70;64.30
57282;DHT22;43129;52.628;10.098;2023-05-10T04:07:41;12.70;64.30
57282;DHT22;43129;52.628;10.098;2023-05-10T04:10:10;12.70;64.30
57282;DHT22;43129;52.628;10.098;2023-05-10T04:12:39;12.70;64.30
57282;DHT22;43129;52.628;10.098;2023-05-10T04:15:05;12.70;64.40
57282;DHT22;43129;52.628;10.098;2023-05-10T04:17:32;12.70;64.50
57282;DHT22;43129;52.628;10.098;2023-05-10T04:20:00;12.70;64.40
57282;DHT22;43129;52.628;10.098;2023-05-10T04:22:25;12.70;64.50
57282;DHT22;43129;52.628;10.098;2023-05-10T04:24:55;12.80;64.50
57282;DHT22;43129;52.628;10.098;2023-05-10T04:27:20;12.80;64.50
57282;DHT22;43129;52.628;10.098;2023-05-10T04:29:46;12.80;64.50
57282;DHT22;43129;52.628;10.098;2023-05-10T04:32:12;12.80;64.30
57282;DHT22;43129;52.628;10.098;2023-05-10T04:34:39;12.80;64.30
57282;DHT22;43129;52.628;10.098;2023-05-10T04:37:05;12.90;64.20
57282;DHT22;43129;52.628;10.098;2023-05-10T04:39:31;13.00;63.90
57282;DHT22;43129;52.628;10.098;2023-05-10T04:41:59;13.00;63.80
57282;DHT22;43129;52.628;10.098;2023-05-10T04:44:25;13.10;63.70
57282;DHT22;43129;52.628;10.098;2023-05-10T04:46:53;13.20;63.90
57282;DHT22;43129;52.628;10.098;2023-05-10T04:49:23;13.10;63.50
57282;DHT22;43129;52.628;10.098;2023-05-10T04:51:49;13.10;63.70
57282;DHT22;43129;52.628;10.098;2023-05-10T04:54:17;13.20;63.80
57282;DHT22;43129;52.628;10.098;2023-05-10T04:56:43;13.20;63.50
57282;DHT22;43129;52.628;10.098;2023-05-10T04:59:11;13.10;63.80
57282;DHT22;43129;52.628;10.098;2023-05-10T05:01:39;13.10;63.90
57282;DHT22;43129;52.628;10.098;2023-05-10T05:04:05;13.00;64.10
57282;DHT22;43129;52.628;10.098;2023-05-10T05:06:30;13.00;64.20
57282;DHT22;43129;52.628;10.098;2023-05-10T05:08:58;13.00;64.30
57282;DHT22;43129;52.628;10.098;2023-05-10T05:11:27;13.00;64.70
57282;DHT22;43129;52.628;10.098;2023-05-10T05:13:54;13.00;64.80
57282;DHT22;43129;52.628;10.098;2023-05-10T05:16:24;12.90;64.70
57282;DHT22;43129;52.628;10.098;2023-05-10T05:18:52;13.00;65.00
57282;DHT22;43129;52.628;10.098;2023-05-10T05:21:21;13.00;64.80
57282;DHT22;43129;52.628;10.098;2023-05-10T05:23:52;13.00;64.70
57282;DHT22;43129;52.628;10.098;2023-05-10T05:26:18;13.00;65.20
57282;DHT22;43129;52.628;10.098;2023-05-10T05:28:46;13.00;65.20
57282;DHT22;43129;52.628;10.098;2023-05-10T05:31:18;12.90;65.60
57282;DHT22;43129;52.628;10.098;2023-05-10T05:33:46;12.90;66.10
57282;DHT22;43129;52.628;10.098;2023-05-10T05:36:14;12.90;66.20
57282;DHT22;43129;52.628;10.098;2023-05-10T05:38:40;13.00;66.50
57282;DHT22;43129;52.628;10.098;2023-05-10T05:41:08;12.90;66.50
57282;DHT22;43129;52.628;10.098;2023-05-10T05:43:33;13.00;66.80
57282;DHT22;43129;52.628;10.098;2023-05-10T05:45:59;13.00;66.50
57282;DHT22;43129;52.628;10.098;2023-05-10T05:48:29;13.00;66.70
57282;DHT22;43129;52.628;10.098;2023-05-10T05:50:55;13.00;66.40
57282;DHT22;43129;52.628;10.098;2023-05-10T05:53:27;13.10;67.00
57282;DHT22;43129;52.628;10.098;2023-05-10T05:55:54;13.00;66.60
57282;DHT22;43129;52.628;10.098;2023-05-10T05:58:20;13.00;66.60
57282;DHT22;43129;52.628;10.098;2023-05-10T06:00:46;13.00;66.70
57282;DHT22;43129;52.628;10.098;2023-05-10T06:03:14;13.00;66.80
57282;DHT22;43129;52.628;10.098;2023-05-10T06:05:44;13.10;67.50
57282;DHT22;43129;52.628;10.098;2023-05-10T06:08:12;13.10;67.30
57282;DHT22;43129;52.628;10.098;2023-05-10T06:10:38;13.10;67.40
57282;DHT22;43129;52.628;10.098;2023-05-10T06:13:04;13.20;67.80
57282;DHT22;43129;52.628;10.098;2023-05-10T06:15:29;13.10;68.00
57282;DHT22;43129;52.628;10.098;2023-05-10T06:17:55;13.10;68.80
57282;DHT22;43129;52.628;10.098;2023-05-10T06:20:23;13.00;68.50
57282;DHT22;43129;52.628;10.098;2023-05-10T06:22:51;13.10;68.90
57282;DHT22;43129;52.628;10.098;2023-05-10T06:25:21;13.10;69.20
57282;DHT22;43129;52.628;10.098;2023-05-10T06:27:47;13.00;69.70
57282;DHT22;43129;52.628;10.098;2023-05-10T06:30:17;13.10;70.00
57282;DHT22;43129;52.628;10.098;2023-05-10T06:32:45;13.30;70.20
57282;DHT22;43129;52.628;10.098;2023-05-10T06:35:15;13.20;70.20
57282;DHT22;43129;52.628;10.098;2023-05-10T06:37:46;13.10;70.90
57282;DHT22;43129;52.628;10.098;2023-05-10T06:40:14;13.20;72.80
57282;DHT22;43129;52.628;10.098;2023-05-10T06:42:40;13.20;71.40
57282;DHT22;43129;52.628;10.098;2023-05-10T06:45:08;13.30;70.90
57282;DHT22;43129;52.628;10.098;2023-05-10T06:47:34;13.30;71.60
57282;DHT22;43129;52.628;10.098;2023-05-10T06:50:02;13.40;71.70
57282;DHT22;43129;52.628;10.098;2023-05-10T06:52:31;13.40;72.30
57282;DHT22;43129;52.628;10.098;2023-05-10T06:54:56;13.40;72.70
57282;DHT22;43129;52.628;10.098;2023-05-10T06:57:23;13.30;73.20
57282;DHT22;43129;52.628;10.098;2023-05-10T06:59:53;13.30;73.80
57282;DHT22;43129;52.628;10.098;2023-05-10T07:02:20;13.30;73.60
57282;DHT22;43129;52.628;10.098;2023-05-10T07:04:47;13.50;73.50
57282;DHT22;43129;52.628;10.098;2023-05-10T07:07:15;13.50;72.60
57282;DHT22;43129;52.628;10.098;2023-05-10T07:09:50;13.60;72.80
57282;DHT22;43129;52.628;10.098;2023-05-10T07:12:26;13.80;72.40
57282;DHT22;43129;52.628;10.098;2023-05-10T07:14:54;13.80;73.30
57282;DHT22;43129;52.628;10.098;2023-05-10T07:17:20;13.80;74.00
57282;DHT22;43129;52.628;10.098;2023-05-10T07:19:46;13.70;73.40
57282;DHT22;43129;52.628;10.098;2023-05-10T07:22:15;13.70;73.80
57282;DHT22;43129;52.628;10.098;2023-05-10T07:24:43;13.60;74.70
57282;DHT22;43129;52.628;10.098;2023-05-10T07:27:09;13.60;75.60
57282;DHT22;43129;52.628;10.098;2023-05-10T07:29:35;13.70;76.10
57282;DHT22;43129;52.628;10.098;2023-05-10T07:32:03;13.60;76.00
57282;DHT22;43129;52.628;10.098;2023-05-10T07:34:34;13.50;77.30
57282;DHT22;43129;52.628;10.098;2023-05-10T07:36:59;13.50;78.30
57282;DHT22;43129;52.628;10.098;2023-05-10T07:39:28;13.40;79.40
57282;DHT22;43129;52.628;10.098;2023-05-10T07:41:58;13.30;81.40
57282;DHT22;43129;52.628;10.098;2023-05-10T07:44:30;13.10;85.30
57282;DHT22;43129;52.628;10.098;2023-05-10T07:46:56;13.00;88.30
57282;DHT22;43129;52.628;10.098;2023-05-10T07:49:27;13.00;90.00
57282;DHT22;43129;52.628;10.098;2023-05-10T07:51:57;12.80;91.40
57282;DHT22;43129;52.628;10.098;2023-05-10T07:54:25;12.70;92.50
57282;DHT22;43129;52.628;10.098;2023-05-10T07:56:55;12.60;93.70
57282;DHT22;43129;52.628;10.098;2023-05-10T07:59:25;12.60;94.50
57282;DHT22;43129;52.628;10.098;2023-05-10T08:01:51;12.50;95.60
57282;DHT22;43129;52.628;10.098;2023-05-10T08:04:17;12.60;96.20
57282;DHT22;43129;52.628;10.098;2023-05-10T08:06:42;12.70;95.60
57282;DHT22;43129;52.628;10.098;2023-05-10T08:09:10;12.60;95.10
57282;DHT22;43129;52.628;10.098;2023-05-10T08:11:36;12.50;96.40
57282;DHT22;43129;52.628;10.098;2023-05-10T08:14:01;12.50;96.00
57282;DHT22;43129;52.628;10.098;2023-05-10T08:16:32;12.70;95.90
57282;DHT22;43129;52.628;10.098;2023-05-10T08:18:58;12.70;96.20
57282;DHT22;43129;52.628;10.098;2023-05-10T08:21:23;12.60;97.10
57282;DHT22;43129;52.628;10.098;2023-05-10T08:23:49;12.50;97.90
57282;DHT22;43129;52.628;10.098;2023-05-10T08:26:15;12.60;98.30
57282;DHT22;43129;52.628;10.098;2023-05-10T08:28:40;12.70;97.80
57282;DHT22;43129;52.628;10.098;2023-05-10T08:31:08;12.80;97.80
57282;DHT22;43129;52.628;10.098;2023-05-10T08:33:34;12.80;97.60
57282;DHT22;43129;52.628;10.098;2023-05-10T08:36:04;12.80;98.10
57282;DHT22;43129;52.628;10.098;2023-05-10T08:38:30;12.70;98.40
57282;DHT22;43129;52.628;10.098;2023-05-10T08:40:55;12.60;99.60
57282;DHT22;43129;52.628;10.098;2023-05-10T08:43:27;12.60;99.60
57282;DHT22;43129;52.628;10.098;2023-05-10T08:45:56;12.70;99.80
57282;DHT22;43129;52.628;10.098;2023-05-10T08:48:25;12.60;99.50
57282;DHT22;43129;52.628;10.098;2023-05-10T08:50:54;12.60;99.90
57282;DHT22;43129;52.628;10.098;2023-05-10T08:53:26;12.70;99.90
57282;DHT22;43129;52.628;10.098;2023-05-10T08:55:56;12.70;99.90
57282;DHT22;43129;52.628;10.098;2023-05-10T08:58:24;12.70;99.90
57282;DHT22;43129;52.628;10.098;2023-05-10T09:00:50;12.80;99.90
57282;DHT22;43129;52.628;10.098;2023-05-10T09:03:19;12.90;99.90
57282;DHT22;43129;52.628;10.098;2023-05-10T09:05:47;12.90;99.90
57282;DHT22;43129;52.628;10.098;2023-05-10T09:08:13;13.10;99.90
57282;DHT22;43129;52.628;10.098;2023-05-10T09:10:44;13.10;99.90
57282;DHT22;43129;52.628;10.098;2023-05-10T09:13:14;13.00;99.90
57282;DHT22;43129;52.628;10.098;2023-05-10T09:15:45;13.10;99.90
57282;DHT22;43129;52.628;10.098;2023-05-10T09:18:15;13.30;99.90
57282;DHT22;43129;52.628;10.098;2023-05-10T09:20:41;13.30;99.90
57282;DHT22;43129;52.628;10.098;2023-05-10T09:23:08;13.30;99.90
57282;DHT22;43129;52.628;10.098;2023-05-10T09:25:38;13.40;99.90
57282;DHT22;43129;52.628;10.098;2023-05-10T09:28:09;13.40;99.90
57282;DHT22;43129;52.628;10.098;2023-05-10T09:30:35;13.50;99.90
57282;DHT22;43129;52.628;10.098;2023-05-10T09:33:03;13.60;99.90
57282;DHT22;43129;52.628;10.098;2023-05-10T09:35:32;13.80;99.90
57282;DHT22;43129;52.628;10.098;2023-05-10T09:38:03;13.80;99.90
57282;DHT22;43129;52.628;10.098;2023-05-10T09:40:30;13.90;99.90
57282;DHT22;43129;52.628;10.098;2023-05-10T09:43:01;14.00;99.90
57282;DHT22;43129;52.628;10.098;2023-05-10T09:45:30;14.00;99.90
57282;DHT22;43129;52.628;10.098;2023-05-10T09:48:02;14.00;99.70
57282;DHT22;43129;52.628;10.098;2023-05-10T09:50:29;14.10;99.80
57282;DHT22;43129;52.628;10.098;2023-05-10T09:53:01;14.00;99.70
57282;DHT22;43129;52.628;10.098;2023-05-10T09:58:06;14.00;99.90
57282;DHT22;43129;52.628;10.098;2023-05-10T10:00:41;14.00;99.90
57282;DHT22;43129;52.628;10.098;2023-05-10T10:03:17;14.00;99.90
57282;DHT22;43129;52.628;10.098;2023-05-10T10:05:43;14.10;99.90
57282;DHT22;43129;52.628;10.098;2023-05-10T10:08:09;14.10;99.90
57282;DHT22;43129;52.628;10.098;2023-05-10T10:10:35;14.10;99.90
57282;DHT22;43129;52.628;10.098;2023-05-10T10:13:02;14.10;99.90
57282;DHT22;43129;52.628;10.098;2023-05-10T10:15:30;14.10;99.90
57282;DHT22;43129;52.628;10.098;2023-05-10T10:17:57;14.00;99.70
57282;DHT22;43129;52.628;10.098;2023-05-10T10:20:32;14.00;99.90
57282;DHT22;43129;52.628;10.098;2023-05-10T10:22:57;14.20;99.90
57282;DHT22;43129;52.628;10.098;2023-05-10T10:25:28;14.20;99.70
57282;DHT22;43129;52.628;10.098;2023-05-10T10:31:12;14.10;99.90
57282;DHT22;43129;52.628;10.098;2023-05-10T10:36:23;14.00;99.90
57282;DHT22;43129;52.628;10.098;2023-05-10T10:41:37;13.90;99.90
57282;DHT22;43129;52.628;10.098;2023-05-10T10:44:25;14.00;99.90
57282;DHT22;43129;52.628;10.098;2023-05-10T10:49:32;14.10;99.90
57282;DHT22;43129;52.628;10.098;2023-05-10T10:52:25;14.10;99.90
57282;DHT22;43129;52.628;10.098;2023-05-10T10:57:24;13.90;99.90
57282;DHT22;43129;52.628;10.098;2023-05-10T10:59:54;13.90;99.90
57282;DHT22;43129;52.628;10.098;2023-05-10T11:07:55;14.10;99.90
57282;DHT22;43129;52.628;10.098;2023-05-10T11:10:22;14.10;99.90
57282;DHT22;43129;52.628;10.098;2023-05-10T11:13:14;14.30;99.90
57282;DHT22;43129;52.628;10.098;2023-05-10T11:15:51;14.20;99.90
57282;DHT22;43129;52.628;10.098;2023-05-10T11:18:27;14.30;99.90
57282;DHT22;43129;52.628;10.098;2023-05-10T11:21:03;14.40;99.90
57282;DHT22;43129;52.628;10.098;2023-05-10T11:23:52;14.50;99.90
57282;DHT22;43129;52.628;10.098;2023-05-10T11:26:22;14.60;99.80
57282;DHT22;43129;52.628;10.098;2023-05-10T11:28:51;14.80;99.10
57282;DHT22;43129;52.628;10.098;2023-05-10T11:31:17;14.90;99.70
57282;DHT22;43129;52.628;10.098;2023-05-10T11:33:49;15.00;99.60
57282;DHT22;43129;52.628;10.098;2023-05-10T11:36:18;15.00;99.60
57282;DHT22;43129;52.628;10.098;2023-05-10T11:38:48;15.10;99.60
57282;DHT22;43129;52.628;10.098;2023-05-10T11:41:15;15.30;99.10
57282;DHT22;43129;52.628;10.098;2023-05-10T11:43:41;15.50;99.30
57282;DHT22;43129;52.628;10.098;2023-05-10T11:46:11;15.40;97.70
57282;DHT22;43129;52.628;10.098;2023-05-10T11:48:40;15.50;98.00
57282;DHT22;43129;52.628;10.098;2023-05-10T11:51:09;15.70;98.10
57282;DHT22;43129;52.628;10.098;2023-05-10T11:53:37;16.10;96.10
57282;DHT22;43129;52.628;10.098;2023-05-10T11:56:10;16.10;96.90
57282;DHT22;43129;52.628;10.098;2023-05-10T11:58:39;16.10;97.00
57282;DHT22;43129;52.628;10.098;2023-05-10T12:01:10;16.10;97.40
57282;DHT22;43129;52.628;10.098;2023-05-10T12:03:36;16.20;96.00
57282;DHT22;43129;52.628;10.098;2023-05-10T12:06:03;16.00;95.50
57282;DHT22;43129;52.628;10.098;2023-05-10T12:08:31;16.00;95.30
57282;DHT22;43129;52.628;10.098;2023-05-10T12:11:08;15.80;95.60
57282;DHT22;43129;52.628;10.098;2023-05-10T12:13:42;15.80;95.20
57282;DHT22;43129;52.628;10.098;2023-05-10T12:16:19;15.90;95.50
57282;DHT22;43129;52.628;10.098;2023-05-10T12:18:49;16.00;95.10
57282;DHT22;43129;52.628;10.098;2023-05-10T12:21:16;16.00;94.00
57282;DHT22;43129;52.628;10.098;2023-05-10T12:23:45;15.80;93.20
57282;DHT22;43129;52.628;10.098;2023-05-10T12:26:11;15.90;93.90
57282;DHT22;43129;52.628;10.098;2023-05-10T12:28:37;15.90;93.80
57282;DHT22;43129;52.628;10.098;2023-05-10T12:31:06;16.10;94.30
57282;DHT22;43129;52.628;10.098;2023-05-10T12:33:58;16.30;93.90
57282;DHT22;43129;52.628;10.098;2023-05-10T12:36:26;16.40;92.30
57282;DHT22;43129;52.628;10.098;2023-05-10T12:39:04;16.70;90.00
57282;DHT22;43129;52.628;10.098;2023-05-10T12:41:32;16.70;87.80
57282;DHT22;43129;52.628;10.098;2023-05-10T12:43:58;16.90;85.80
57282;DHT22;43129;52.628;10.098;2023-05-10T12:46:25;16.90;89.00
57282;DHT22;43129;52.628;10.098;2023-05-10T12:48:57;17.00;85.00
57282;DHT22;43129;52.628;10.098;2023-05-10T12:51:25;17.00;85.60
57282;DHT22;43129;52.628;10.098;2023-05-10T12:53:53;17.00;85.30
57282;DHT22;43129;52.628;10.098;2023-05-10T12:56:19;17.00;87.20
57282;DHT22;43129;52.628;10.098;2023-05-10T12:58:45;17.00;85.70
57282;DHT22;43129;52.628;10.098;2023-05-10T13:01:16;17.20;83.20
57282;DHT22;43129;52.628;10.098;2023-05-10T13:03:44;17.10;83.00
57282;DHT22;43129;52.628;10.098;2023-05-10T13:06:10;17.00;82.50
57282;DHT22;43129;52.628;10.098;2023-05-10T13:08:38;17.00;81.90
57282;DHT22;43129;52.628;10.098;2023-05-10T13:11:06;17.20;80.90
57282;DHT22;43129;52.628;10.098;2023-05-10T13:13:33;17.70;78.20
57282;DHT22;43129;52.628;10.098;2023-05-10T13:16:00;18.10;76.30
57282;DHT22;43129;52.628;10.098;2023-05-10T13:18:26;18.30;75.40
57282;DHT22;43129;52.628;10.098;2023-05-10T13:20:54;18.50;73.10
57282;DHT22;43129;52.628;10.098;2023-05-10T13:23:22;18.60;72.30
57282;DHT22;43129;52.628;10.098;2023-05-10T13:25:47;18.70;70.90
57282;DHT22;43129;52.628;10.098;2023-05-10T13:28:13;19.20;68.70
57282;DHT22;43129;52.628;10.098;2023-05-10T13:30:39;19.30;68.40
57282;DHT22;43129;52.628;10.098;2023-05-10T13:33:04;19.20;68.80
57282;DHT22;43129;52.628;10.098;2023-05-10T13:35:30;18.80;70.00
57282;DHT22;43129;52.628;10.098;2023-05-10T13:37:58;18.80;70.90
57282;DHT22;43129;52.628;10.098;2023-05-10T13:40:24;18.90;70.50
57282;DHT22;43129;52.628;10.098;2023-05-10T13:42:50;18.90;70.90
57282;DHT22;43129;52.628;10.098;2023-05-10T13:45:15;18.70;71.20
57282;DHT22;43129;52.628;10.098;2023-05-10T13:47:43;18.60;72.40
57282;DHT22;43129;52.628;10.098;2023-05-10T13:50:11;18.30;71.20
57282;DHT22;43129;52.628;10.098;2023-05-10T13:52:36;18.10;72.10
57282;DHT22;43129;52.628;10.098;2023-05-10T13:55:02;17.90;74.20
57282;DHT22;43129;52.628;10.098;2023-05-10T13:57:34;17.50;75.40
57282;DHT22;43129;52.628;10.098;2023-05-10T14:00:01;17.10;77.40
57282;DHT22;43129;52.628;10.098;2023-05-10T14:02:31;16.80;80.20
57282;DHT22;43129;52.628;10.098;2023-05-10T14:05:02;16.30;82.30
57282;DHT22;43129;52.628;10.098;2023-05-10T14:07:29;15.50;90.60
57282;DHT22;43129;52.628;10.098;2023-05-10T14:09:58;14.70;94.50
57282;DHT22;43129;52.628;10.098;2023-05-10T14:12:23;14.30;96.20
57282;DHT22;43129;52.628;10.098;2023-05-10T14:14:51;14.00;98.00
57282;DHT22;43129;52.628;10.098;2023-05-10T14:17:17;13.80;99.30
57282;DHT22;43129;52.628;10.098;2023-05-10T14:19:43;13.70;99.90
57282;DHT22;43129;52.628;10.098;2023-05-10T14:22:09;13.60;99.90
57282;DHT22;43129;52.628;10.098;2023-05-10T14:24:39;13.70;99.90
57282;DHT22;43129;52.628;10.098;2023-05-10T14:27:04;13.90;99.90
57282;DHT22;43129;52.628;10.098;2023-05-10T14:29:31;14.00;99.90
57282;DHT22;43129;52.628;10.098;2023-05-10T14:32:01;13.90;99.90
57282;DHT22;43129;52.628;10.098;2023-05-10T14:34:30;13.90;99.90
57282;DHT22;43129;52.628;10.098;2023-05-10T14:36:56;14.00;99.90
57282;DHT22;43129;52.628;10.098;2023-05-10T14:39:21;14.20;99.90
57282;DHT22;43129;52.628;10.098;2023-05-10T14:41:50;14.20;99.90
57282;DHT22;43129;52.628;10.098;2023-05-10T14:44:20;14.30;99.90
57282;DHT22;43129;52.628;10.098;2023-05-10T14:46:48;14.40;99.90
57282;DHT22;43129;52.628;10.098;2023-05-10T14:49:17;14.40;99.90
57282;DHT22;43129;52.628;10.098;2023-05-10T14:51:45;14.40;99.60
57282;DHT22;43129;52.628;10.098;2023-05-10T14:54:11;14.40;99.00
57282;DHT22;43129;52.628;10.098;2023-05-10T14:56:38;14.30;98.80
57282;DHT22;43129;52.628;10.098;2023-05-10T14:59:04;14.30;99.30
57282;DHT22;43129;52.628;10.098;2023-05-10T15:01:30;14.30;99.00
57282;DHT22;43129;52.628;10.098;2023-05-10T15:03:58;14.30;99.50
57282;DHT22;43129;52.628;10.098;2023-05-10T15:06:30;14.30;99.00
57282;DHT22;43129;52.628;10.098;2023-05-10T15:08:58;14.30;99.60
57282;DHT22;43129;52.628;10.098;2023-05-10T15:11:23;14.30;99.90
57282;DHT22;43129;52.628;10.098;2023-05-10T15:13:51;14.50;98.90
57282;DHT22;43129;52.628;10.098;2023-05-10T15:16:17;14.60;99.10
57282;DHT22;43129;52.628;10.098;2023-05-10T15:18:43;14.70;98.80
57282;DHT22;43129;52.628;10.098;2023-05-10T15:21:11;14.70;98.30
57282;DHT22;43129;52.628;10.098;2023-05-10T15:23:37;14.70;97.70
57282;DHT22;43129;52.628;10.098;2023-05-10T15:26:03;14.70;97.90
57282;DHT22;43129;52.628;10.098;2023-05-10T15:28:28;14.70;98.50
57282;DHT22;43129;52.628;10.098;2023-05-10T15:30:55;14.70;98.70
57282;DHT22;43129;52.628;10.098;2023-05-10T15:33:21;14.80;98.30
57282;DHT22;43129;52.628;10.098;2023-05-10T15:35:50;14.80;99.10
57282;DHT22;43129;52.628;10.098;2023-05-10T15:38:21;14.80;98.40
57282;DHT22;43129;52.628;10.098;2023-05-10T15:40:46;14.90;98.30
57282;DHT22;43129;52.628;10.098;2023-05-10T15:43:12;15.00;98.40
57282;DHT22;43129;52.628;10.098;2023-05-10T15:45:40;14.90;98.30
57282;DHT22;43129;52.628;10.098;2023-05-10T15:48:08;14.90;98.80
57282;DHT22;43129;52.628;10.098;2023-05-10T15:50:38;14.80;98.90
57282;DHT22;43129;52.628;10.098;2023-05-10T15:53:10;14.60;99.60
57282;DHT22;43129;52.628;10.098;2023-05-10T15:55:39;14.70;99.90
57282;DHT22;43129;52.628;10.098;2023-05-10T15:58:05;14.70;99.90
57282;DHT22;43129;52.628;10.098;2023-05-10T16:00:31;14.60;99.90
57282;DHT22;43129;52.628;10.098;2023-05-10T16:02:56;14.70;99.90